Accueil
METAR-TAF:

METAR-TAF

Aéroports :

Rosh Pina, Israël

latitude: 32-58-48N, longitude: 035-34-12E, altitude: 281 m

Observation

Le bulletin a été fait il y a 41 minutes, à 06:50 UTC
Vent 5 kt de sud, variant entre sud-est et sud-ouest
Température 26°C
Humidité 61%
Pression 1015 hPa
Visibilité: 9000 m
Quelques nuages à une hauteur de 2500 ft

METAR: LLIB 250650Z 18005KT 130V220 9000 FEW025 26/18 Q1015

Heure: 10:31 (07:31 UTC)

Prévision

Le bulletin a été fait il y a 2 heures et 29 minutes, à 05:02 UTC
Prévision valable du 25 à 06 UTC au 26 à 06 UTC
Vent 6 kt de sud/sud-est
Visibilité 10 km ou plus
pas de nuages en-dessous de 1500 mètres et pas de cumulonimbus.
Evoluant progressivement
du 25 à 10 UTC au 25 à 12 UTC
Vent 5 kt de ouest/nord-ouest
Temporairement
du 25 à 12 UTC au 25 à 16 UTC
Vent 12 kt de nord-ouest

TAF: LLIB 250502Z 2506/2606 16006KT CAVOK BECMG 2510/2512 30005KT TEMPO 2512/2516 32012KT TX32/2512Z TN15/2603Z

Observations et prévisions météorologiques de plus de 4000 aéroports (messages METAR et TAF).

Les stations disponibles sont représentées par des disques jaunes et rouges sur la carte.

Passer la souris dessus pour voir le nom de la station.

Cliquer dessus pour voir les observations et prévisions météorologiques.

Pour changer de carte: cliquez sur les boutons verts avec une croix noire pour zoomer, sur le bouton vert avec un tiret pour effectuer un zoom arrière, ou sur les flèches vertes pour les cartes adjacentes.


METAR-TAF: